createdAt,value
2024-03-07T00:03:20.493Z,102971.66
2024-03-07T00:08:40.969Z,102967.97
2024-03-07T00:14:01.873Z,102964.28
2024-03-07T00:19:23.107Z,102977.56
2024-03-07T00:24:44.085Z,102974.97
2024-03-07T00:30:06.568Z,102972.09
2024-03-07T00:35:27.214Z,102968.41
2024-03-07T00:40:48.023Z,102958.78
2024-03-07T00:46:08.709Z,102960.50
2024-03-07T00:51:30.587Z,102957.81
2024-03-07T00:56:51.492Z,102949.88
2024-03-07T01:02:12.209Z,102947.00
2024-03-07T01:07:32.837Z,102950.19
2024-03-07T01:12:54.653Z,102942.84
2024-03-07T01:18:15.733Z,102946.84
2024-03-07T01:23:36.292Z,102941.63
2024-03-07T01:29:00.361Z,102948.84
2024-03-07T01:34:21.067Z,102949.44
2024-03-07T01:39:41.661Z,102947.69
2024-03-07T01:45:02.372Z,102953.22
2024-03-07T01:50:23.132Z,102942.59
2024-03-07T01:55:45.426Z,102947.28
2024-03-07T02:01:06.238Z,102940.19
2024-03-07T02:06:27.083Z,102936.63
2024-03-07T02:11:50.898Z,102940.91
2024-03-07T02:17:11.639Z,102940.03
2024-03-07T02:22:32.344Z,102932.19
2024-03-07T02:27:52.959Z,102929.47
2024-03-07T02:33:13.759Z,102930.03
2024-03-07T02:38:35.704Z,102934.41
2024-03-07T02:43:56.886Z,102927.09
2024-03-07T02:49:17.543Z,102921.56
2024-03-07T02:54:38.401Z,102921.88
2024-03-07T02:59:59.015Z,102929.31
2024-03-07T03:05:21.030Z,102914.31
2024-03-07T03:10:42.203Z,102920.00
2024-03-07T03:16:05.994Z,102925.53
2024-03-07T03:21:26.883Z,102914.03
2024-03-07T03:26:47.331Z,102919.06
2024-03-07T03:32:08.567Z,102922.25
2024-03-07T03:37:28.919Z,102914.75
2024-03-07T03:42:49.916Z,102917.09
2024-03-07T03:48:10.520Z,102923.13
2024-03-07T03:53:31.191Z,102919.38
2024-03-07T03:58:51.824Z,102911.78
2024-03-07T04:04:12.343Z,102917.72
2024-03-07T04:09:32.788Z,102910.84
2024-03-07T04:14:55.913Z,102908.78
2024-03-07T04:20:19.090Z,102912.44
2024-03-07T04:25:41.156Z,102909.06
2024-03-07T04:31:01.913Z,102910.03
2024-03-07T04:36:22.419Z,102907.25
2024-03-07T04:41:43.059Z,102909.06
2024-03-07T04:47:04.926Z,102894.97
2024-03-07T04:52:25.464Z,102903.59
2024-03-07T04:57:46.150Z,102896.06
2024-03-07T05:03:06.653Z,102898.94
2024-03-07T05:08:27.666Z,102900.91
2024-03-07T05:13:49.706Z,102895.63
2024-03-07T05:19:10.528Z,102901.16
2024-03-07T05:24:30.932Z,102902.28
2024-03-07T05:29:51.845Z,102916.03
2024-03-07T05:35:12.819Z,102917.81
2024-03-07T05:40:34.340Z,102922.66
2024-03-07T05:45:55.395Z,102925.31
2024-03-07T05:51:16.009Z,102922.03
2024-03-07T05:56:37.229Z,102929.53
2024-03-07T06:01:57.773Z,102932.84
2024-03-07T06:07:36.908Z,102916.63
2024-03-07T06:13:05.865Z,102912.38
2024-03-07T06:18:32.640Z,102922.53
2024-03-07T06:24:00.381Z,102926.38
2024-03-07T06:29:21.039Z,102925.69
2024-03-07T06:34:41.727Z,102932.94
2024-03-07T06:40:07.205Z,102922.06
2024-03-07T06:45:27.577Z,102924.66
2024-03-07T06:50:47.996Z,102924.66
2024-03-07T06:56:09.003Z,102919.03
2024-03-07T07:01:30.560Z,102931.84
2024-03-07T07:06:50.991Z,102929.13
2024-03-07T07:12:12.267Z,102938.56
2024-03-07T07:17:32.948Z,102932.44
2024-03-07T07:22:54.262Z,102928.53
2024-03-07T07:28:14.722Z,102931.03
2024-03-07T07:33:35.506Z,102924.63
2024-03-07T07:38:55.972Z,102921.41
2024-03-07T07:44:17.213Z,102928.84
2024-03-07T07:49:39.594Z,102926.38
2024-03-07T07:55:00.745Z,102926.06
2024-03-07T08:00:29.628Z,102926.31
2024-03-07T08:05:50.720Z,102929.75
2024-03-07T08:11:13.015Z,102922.38
2024-03-07T08:16:34.340Z,102931.28
2024-03-07T08:21:55.237Z,102921.88
2024-03-07T08:27:15.641Z,102931.59
2024-03-07T08:32:39.341Z,102927.88
2024-03-07T08:37:59.828Z,102927.16
2024-03-07T08:43:20.359Z,102913.47
2024-03-07T08:48:41.260Z,102911.78
2024-03-07T08:54:02.055Z,102911.25
2024-03-07T08:59:22.634Z,102915.09
2024-03-07T09:04:43.121Z,102914.25
2024-03-07T09:10:05.113Z,102917.19
2024-03-07T09:15:25.954Z,102913.16
2024-03-07T09:20:46.758Z,102914.66
2024-03-07T09:26:08.432Z,102921.78
2024-03-07T09:31:28.914Z,102917.75
2024-03-07T09:36:50.053Z,102925.38
2024-03-07T09:42:11.006Z,102916.47
2024-03-07T09:47:31.989Z,102918.38
2024-03-07T09:52:55.121Z,102910.56
2024-03-07T09:58:20.972Z,102918.56
2024-03-07T10:03:45.765Z,102910.06
2024-03-07T10:09:06.862Z,102902.34
2024-03-07T10:14:27.744Z,102908.47
2024-03-07T10:19:50.061Z,102912.06
2024-03-07T10:25:11.698Z,102910.38
2024-03-07T10:30:40.981Z,102904.47
2024-03-07T10:36:02.813Z,102904.50
2024-03-07T10:41:28.941Z,102909.56
2024-03-07T10:46:54.103Z,102911.94
2024-03-07T10:52:35.579Z,102897.22
2024-03-07T10:58:21.261Z,102902.19
2024-03-07T11:03:43.649Z,102885.81
2024-03-07T11:09:11.708Z,102884.69
2024-03-07T11:14:34.728Z,102879.22
2024-03-07T11:19:55.254Z,102883.78
2024-03-07T11:25:18.416Z,102871.59
2024-03-07T11:30:39.927Z,102873.81
2024-03-07T11:36:02.721Z,102869.16
2024-03-07T11:41:23.863Z,102871.44
2024-03-07T11:46:44.646Z,102874.78
2024-03-07T11:52:05.772Z,102862.31
2024-03-07T11:57:33.669Z,102868.19
2024-03-07T12:02:55.566Z,102855.53
2024-03-07T12:08:16.244Z,102847.41
2024-03-07T12:13:37.257Z,102837.69
2024-03-07T12:18:58.242Z,102841.00
2024-03-07T12:24:19.176Z,102832.13
2024-03-07T12:29:43.447Z,102819.56
2024-03-07T12:35:05.810Z,102819.16
2024-03-07T12:40:30.247Z,102815.50
2024-03-07T12:45:52.680Z,102804.94
2024-03-07T12:51:18.301Z,102801.66
2024-03-07T12:56:40.529Z,102806.31
2024-03-07T13:02:01.224Z,102795.97
2024-03-07T13:07:21.824Z,102789.69
2024-03-07T13:12:46.498Z,102784.00
2024-03-07T13:18:08.611Z,102776.56
2024-03-07T13:23:29.531Z,102772.69
2024-03-07T13:28:52.155Z,102765.19
2024-03-07T13:34:16.027Z,102763.22
2024-03-07T13:39:37.197Z,102754.44
2024-03-07T13:44:57.974Z,102751.22
2024-03-07T13:50:35.669Z,102746.19
2024-03-07T13:56:15.950Z,102747.56
2024-03-07T14:02:12.431Z,102747.91
2024-03-07T14:08:11.191Z,102747.31
2024-03-07T14:13:41.122Z,102746.81
2024-03-07T14:19:30.266Z,102735.31
2024-03-07T14:24:54.362Z,102731.09
2024-03-07T14:30:14.978Z,102731.00
2024-03-07T14:36:11.265Z,102730.00
2024-03-07T14:41:50.022Z,102717.94
2024-03-07T14:47:12.140Z,102719.66
2024-03-07T14:52:32.910Z,102711.16
2024-03-07T14:57:53.426Z,102709.03
2024-03-07T15:03:19.794Z,102704.97
2024-03-07T15:08:42.097Z,102704.19
2024-03-07T15:14:02.594Z,102702.19
2024-03-07T15:19:24.089Z,102691.25
2024-03-07T15:24:44.606Z,102681.09
2024-03-07T15:30:12.045Z,102680.03
2024-03-07T15:35:33.964Z,102683.09
2024-03-07T15:41:03.561Z,102665.09
2024-03-07T15:46:24.080Z,102661.66
2024-03-07T15:51:46.813Z,102654.03
2024-03-07T15:57:07.533Z,102647.25
2024-03-07T16:02:27.755Z,102645.78
2024-03-07T16:07:48.367Z,102648.69
2024-03-07T16:13:10.738Z,102644.56
2024-03-07T16:18:31.515Z,102638.25
2024-03-07T16:23:53.565Z,102629.66
2024-03-07T16:29:14.397Z,102638.56
2024-03-07T16:34:38.058Z,102633.88
2024-03-07T16:39:58.774Z,102628.13
2024-03-07T16:45:21.314Z,102630.34
2024-03-07T16:50:42.627Z,102624.13
2024-03-07T16:56:05.078Z,102619.09
2024-03-07T17:01:25.727Z,102630.44
2024-03-07T17:06:46.292Z,102627.16
2024-03-07T17:12:07.163Z,102625.09
2024-03-07T17:17:28.786Z,102630.44
2024-03-07T17:22:49.533Z,102634.72
2024-03-07T17:28:10.480Z,102639.63
2024-03-07T17:33:31.180Z,102648.34
2024-03-07T17:38:51.816Z,102652.50
2024-03-07T17:44:18.077Z,102641.63
2024-03-07T17:49:41.733Z,102642.13
2024-03-07T17:55:02.331Z,102647.00
2024-03-07T18:00:28.965Z,102638.22
2024-03-07T18:05:54.120Z,102636.97
2024-03-07T18:11:15.928Z,102637.59
2024-03-07T18:16:38.609Z,102642.31
2024-03-07T18:21:59.747Z,102638.09
2024-03-07T18:27:21.351Z,102630.59
2024-03-07T18:32:42.429Z,102635.44
2024-03-07T18:38:03.737Z,102635.78
2024-03-07T18:43:24.168Z,102632.47
2024-03-07T18:48:44.522Z,102635.31
2024-03-07T18:54:08.489Z,102636.50
2024-03-07T18:59:29.099Z,102636.41
2024-03-07T19:04:49.742Z,102640.38
2024-03-07T19:10:18.016Z,102632.28
2024-03-07T19:15:38.889Z,102629.28
2024-03-07T19:20:59.479Z,102632.38
2024-03-07T19:26:21.302Z,102615.59
2024-03-07T19:31:41.853Z,102615.91
2024-03-07T19:37:02.377Z,102613.53
2024-03-07T19:42:23.230Z,102619.06
2024-03-07T19:47:44.348Z,102611.97
2024-03-07T19:53:14.142Z,102610.44
2024-03-07T19:58:34.755Z,102609.97
2024-03-07T20:03:55.496Z,102609.97
2024-03-07T20:09:18.267Z,102613.94
2024-03-07T20:14:40.282Z,102612.97
2024-03-07T20:20:00.908Z,102610.38
2024-03-07T20:25:22.348Z,102615.59
2024-03-07T20:30:45.781Z,102601.81
2024-03-07T20:36:09.475Z,102598.25
2024-03-07T20:41:31.445Z,102600.31
2024-03-07T20:46:52.430Z,102595.63
2024-03-07T20:52:12.739Z,102595.88
2024-03-07T20:57:34.133Z,102587.81
2024-03-07T21:02:57.774Z,102592.63
2024-03-07T21:08:19.212Z,102589.06
2024-03-07T21:13:40.327Z,102587.94
2024-03-07T21:19:01.419Z,102590.88
2024-03-07T21:24:22.156Z,102584.78
2024-03-07T21:29:42.731Z,102584.94
2024-03-07T21:35:06.148Z,102580.31
2024-03-07T21:40:26.457Z,102581.44
2024-03-07T21:45:47.090Z,102575.91
2024-03-07T21:51:11.095Z,102567.75
2024-03-07T21:56:31.948Z,102575.75
2024-03-07T22:01:52.492Z,102574.81
2024-03-07T22:07:16.074Z,102578.50
2024-03-07T22:12:37.739Z,102568.78
2024-03-07T22:17:58.340Z,102575.03
2024-03-07T22:23:18.974Z,102559.03
2024-03-07T22:28:39.767Z,102561.66
2024-03-07T22:34:00.284Z,102552.78
2024-03-07T22:39:20.941Z,102544.06
2024-03-07T22:44:43.122Z,102544.25
2024-03-07T22:50:13.664Z,102540.28
2024-03-07T22:55:44.080Z,102535.03
2024-03-07T23:01:05.439Z,102536.00
2024-03-07T23:06:35.162Z,102530.88
2024-03-07T23:11:56.837Z,102525.78
2024-03-07T23:17:18.314Z,102532.06
2024-03-07T23:22:38.835Z,102532.97
2024-03-07T23:28:01.323Z,102526.34
2024-03-07T23:33:22.244Z,102533.06
2024-03-07T23:38:42.936Z,102526.72
2024-03-07T23:44:03.351Z,102533.41
2024-03-07T23:49:25.178Z,102521.22
2024-03-07T23:54:46.082Z,102525.88
